Time;durP1;ratioP1;P1;durP2;ratioP2;P2;SDS_P1;SDS_P2;PMS_P1;PMS_P2;Temp;Humidity;BMP_temperature;BMP_pressure;BME280_temperature;BME280_humidity;BME280_pressure;Samples;Min_cycle;Max_cycle;Signal;HPM_P1;HPM_P2
2023/09/14 00:00:04;;;;;;;9.25;2.33;;;13.20;99.90;;;;;;4992662;28;20057;-89
2023/09/14 00:02:29;;;;;;;7.07;2.00;;;13.20;99.90;;;;;;4976339;28;20121;-89
2023/09/14 00:04:55;;;;;;;9.95;2.38;;;13.20;99.90;;;;;;4996833;28;20030;-89
2023/09/14 00:07:20;;;;;;;13.95;3.50;;;13.20;99.90;;;;;;4993198;28;20487;-89
2023/09/14 00:09:46;;;;;;;10.18;2.47;;;13.30;99.90;;;;;;4992435;28;20057;-89
2023/09/14 00:12:11;;;;;;;7.03;2.33;;;13.30;99.90;;;;;;4991507;28;20515;-89
2023/09/14 00:14:37;;;;;;;8.55;2.10;;;13.40;99.90;;;;;;4977082;28;20068;-90
2023/09/14 00:17:02;;;;;;;9.38;2.63;;;13.40;99.90;;;;;;4992464;28;20022;-88
2023/09/14 00:19:28;;;;;;;8.80;2.75;;;13.40;99.90;;;;;;4992692;28;20034;-89
2023/09/14 00:21:53;;;;;;;10.52;2.45;;;13.50;99.90;;;;;;4992712;28;20395;-87
2023/09/14 00:24:19;;;;;;;5.57;2.60;;;13.50;99.90;;;;;;4989561;28;20023;-88
2023/09/14 00:26:44;;;;;;;10.07;2.90;;;13.50;99.90;;;;;;4986756;28;20113;-88
2023/09/14 00:29:10;;;;;;;8.05;2.15;;;13.50;99.90;;;;;;4991866;28;20038;-88
2023/09/14 00:31:38;;;;;;;9.25;2.97;;;13.60;99.90;;;;;;4992035;28;20022;-88
2023/09/14 00:34:04;;;;;;;10.45;2.88;;;13.60;99.90;;;;;;4975926;28;20018;-88
2023/09/14 00:36:30;;;;;;;10.25;2.95;;;13.60;99.90;;;;;;4975463;28;20121;-88
2023/09/14 00:38:55;;;;;;;9.88;2.42;;;13.60;99.90;;;;;;4976412;28;20058;-89
2023/09/14 00:41:21;;;;;;;10.93;3.45;;;13.60;99.90;;;;;;4990412;28;20065;-88
2023/09/14 00:43:46;;;;;;;8.77;2.75;;;13.70;99.90;;;;;;4976154;28;20057;-89
2023/09/14 00:46:12;;;;;;;5.88;2.45;;;13.70;99.90;;;;;;4975733;28;20057;-88
2023/09/14 00:48:38;;;;;;;8.20;2.88;;;13.70;99.90;;;;;;4991529;28;20026;-89
2023/09/14 00:51:04;;;;;;;6.97;2.45;;;13.70;99.90;;;;;;4975467;28;20038;-88
2023/09/14 00:53:29;;;;;;;10.43;2.72;;;13.70;99.90;;;;;;4975325;28;20022;-89
2023/09/14 00:55:56;;;;;;;7.28;2.25;;;13.60;99.90;;;;;;4993138;28;20501;-89
2023/09/14 00:58:22;;;;;;;6.07;2.17;;;13.60;99.90;;;;;;4991763;28;22043;-89
2023/09/14 01:00:49;;;;;;;10.32;2.45;;;13.60;99.90;;;;;;4991932;28;20034;-89
2023/09/14 01:03:15;;;;;;;9.60;2.55;;;13.60;99.90;;;;;;4991445;28;20038;-89
2023/09/14 01:05:41;;;;;;;6.85;2.55;;;13.60;99.90;;;;;;4992976;28;20037;-89
2023/09/14 01:08:06;;;;;;;6.90;2.53;;;13.50;99.90;;;;;;4991152;28;20035;-88
2023/09/14 01:10:32;;;;;;;8.25;2.58;;;13.50;99.90;;;;;;4992161;28;20042;-89
2023/09/14 01:12:58;;;;;;;5.95;2.42;;;13.50;99.90;;;;;;4975476;28;20043;-89
2023/09/14 01:15:43;;;;;;;10.32;2.42;;;13.40;99.90;;;;;;4994495;28;20077;-88
2023/09/14 01:18:11;;;;;;;10.95;2.42;;;13.40;99.90;;;;;;4988776;28;20029;-89
2023/09/14 01:21:06;;;;;;;8.73;2.60;;;13.40;99.90;;;;;;4990790;28;20088;-88
2023/09/14 01:23:57;;;;;;;9.07;2.53;;;13.40;99.90;;;;;;4992631;28;20029;-88
2023/09/14 01:26:23;;;;;;;9.98;2.00;;;13.40;99.90;;;;;;4991954;28;20030;-88
2023/09/14 01:28:48;;;;;;;12.27;2.60;;;13.30;99.90;;;;;;4972434;28;20023;-89
2023/09/14 01:31:14;;;;;;;8.50;2.17;;;13.30;99.90;;;;;;4990760;28;20076;-89
2023/09/14 01:33:41;;;;;;;9.93;2.13;;;13.20;99.90;;;;;;4988183;28;20057;-89
2023/09/14 01:36:33;;;;;;;8.30;2.08;;;13.10;99.90;;;;;;4992355;28;20414;-89
2023/09/14 01:39:04;;;;;;;13.43;2.42;;;13.10;99.90;;;;;;4992159;28;20038;-89
2023/09/14 01:41:31;;;;;;;9.10;3.00;;;13.00;99.90;;;;;;4975724;28;20038;-89
2023/09/14 01:43:57;;;;;;;9.30;2.42;;;13.00;99.90;;;;;;4991115;28;20514;-90
2023/09/14 01:46:24;;;;;;;9.07;2.45;;;12.90;99.90;;;;;;4974631;28;20030;-89
2023/09/14 01:48:50;;;;;;;7.65;3.17;;;12.90;99.90;;;;;;4975284;28;20050;-89
2023/09/14 01:51:15;;;;;;;9.68;3.03;;;12.80;99.90;;;;;;4989780;28;20066;-89
2023/09/14 01:53:41;;;;;;;7.13;2.05;;;12.80;99.90;;;;;;4990743;28;20109;-89
2023/09/14 01:56:06;;;;;;;9.07;2.97;;;12.70;99.90;;;;;;4988062;28;20434;-89
2023/09/14 01:58:32;;;;;;;6.20;2.00;;;12.70;99.90;;;;;;4992748;28;20490;-89
2023/09/14 02:00:57;;;;;;;6.47;1.90;;;12.70;99.90;;;;;;4978764;28;20030;-89
2023/09/14 02:03:23;;;;;;;6.57;1.92;;;12.60;99.90;;;;;;4975011;28;20022;-89
2023/09/14 02:06:01;;;;;;;6.03;2.30;;;12.60;99.90;;;;;;4992824;28;20050;-89
2023/09/14 02:08:27;;;;;;;12.25;3.08;;;12.50;99.90;;;;;;4989956;28;20050;-88
2023/09/14 02:10:52;;;;;;;6.32;1.70;;;12.50;99.90;;;;;;4991357;28;20030;-88
2023/09/14 02:13:18;;;;;;;5.80;1.45;;;12.40;99.90;;;;;;4974754;28;20081;-88
2023/09/14 02:15:43;;;;;;;5.78;2.25;;;12.40;99.90;;;;;;4991474;28;20466;-88
2023/09/14 02:18:09;;;;;;;10.18;2.53;;;12.30;99.90;;;;;;4989544;28;20474;-87
2023/09/14 02:20:38;;;;;;;7.03;2.05;;;12.30;99.90;;;;;;4974988;28;20022;-87
2023/09/14 02:23:04;;;;;;;7.40;2.28;;;12.20;99.90;;;;;;4968964;28;20050;-88
2023/09/14 02:25:30;;;;;;;8.00;2.63;;;12.20;99.90;;;;;;4992357;28;20399;-88
2023/09/14 02:27:55;;;;;;;8.20;2.22;;;12.20;99.90;;;;;;4990830;28;20022;-88
2023/09/14 02:30:21;;;;;;;7.70;2.67;;;12.20;99.90;;;;;;4990992;28;20042;-87
2023/09/14 02:32:46;;;;;;;12.27;2.75;;;12.10;99.90;;;;;;4990784;28;20030;-87
2023/09/14 02:35:12;;;;;;;8.70;2.75;;;12.00;99.90;;;;;;4990416;28;20022;-88
2023/09/14 02:37:37;;;;;;;5.55;2.17;;;12.00;99.90;;;;;;4994472;28;20023;-88
2023/09/14 02:40:06;;;;;;;11.60;2.38;;;11.90;99.90;;;;;;4977599;28;20026;-88
2023/09/14 02:42:32;;;;;;;11.35;2.33;;;11.90;99.90;;;;;;4994173;28;20034;-88
2023/09/14 02:44:57;;;;;;;7.47;3.00;;;11.90;99.90;;;;;;4994181;28;20022;-88
2023/09/14 02:47:23;;;;;;;8.63;2.60;;;11.90;99.90;;;;;;4977762;28;20029;-88
2023/09/14 02:49:48;;;;;;;8.73;2.35;;;11.80;99.90;;;;;;4995797;28;20039;-88
2023/09/14 02:52:14;;;;;;;14.45;3.00;;;11.80;99.90;;;;;;4977618;28;20027;-87
2023/09/14 02:54:39;;;;;;;11.00;3.95;;;11.70;99.90;;;;;;4994234;28;20070;-87
2023/09/14 02:57:05;;;;;;;17.10;3.20;;;11.70;99.90;;;;;;4993850;28;20118;-88
2023/09/14 02:59:31;;;;;;;7.45;1.88;;;11.70;99.90;;;;;;4993861;28;20032;-89
2023/09/14 03:01:57;;;;;;;10.82;2.30;;;11.70;99.90;;;;;;4992922;28;20469;-88
2023/09/14 03:04:22;;;;;;;6.75;2.63;;;11.60;99.90;;;;;;4977553;28;20033;-88
2023/09/14 03:06:48;;;;;;;7.90;2.58;;;11.60;99.90;;;;;;4993983;28;20034;-89
2023/09/14 03:09:13;;;;;;;8.15;3.03;;;11.60;99.90;;;;;;4977359;28;20121;-89
2023/09/14 03:11:39;;;;;;;13.82;2.60;;;11.50;99.90;;;;;;4993727;28;20022;-88
2023/09/14 03:14:04;;;;;;;12.43;3.22;;;11.50;99.90;;;;;;4973742;28;20090;-87
2023/09/14 03:16:30;;;;;;;8.65;3.10;;;11.50;99.90;;;;;;4989052;28;20041;-88
2023/09/14 03:18:56;;;;;;;8.95;3.08;;;11.40;99.90;;;;;;4976333;28;20022;-88
2023/09/14 03:21:23;;;;;;;11.30;3.55;;;11.40;99.90;;;;;;4987878;28;20080;-88
2023/09/14 03:23:49;;;;;;;10.80;3.20;;;11.40;99.90;;;;;;4992665;28;20026;-88
2023/09/14 03:26:15;;;;;;;6.60;3.33;;;11.40;99.90;;;;;;4986034;28;20415;-88
2023/09/14 03:28:41;;;;;;;7.70;3.30;;;11.40;99.90;;;;;;4992860;28;20033;-88
2023/09/14 03:31:06;;;;;;;10.32;3.45;;;11.40;99.90;;;;;;4974544;28;20038;-88
2023/09/14 03:33:32;;;;;;;11.15;4.18;;;11.30;99.90;;;;;;4992579;28;20064;-88
2023/09/14 03:35:59;;;;;;;10.15;3.75;;;11.30;99.90;;;;;;4989262;28;20054;-88
2023/09/14 03:38:24;;;;;;;9.30;3.53;;;11.20;99.90;;;;;;4967984;28;20042;-88
2023/09/14 03:40:50;;;;;;;12.70;3.33;;;11.20;99.90;;;;;;4968845;28;20507;-89
2023/09/14 03:43:15;;;;;;;8.38;2.58;;;11.20;99.90;;;;;;4976417;28;20022;-89
2023/09/14 03:45:41;;;;;;;9.25;3.35;;;11.20;99.90;;;;;;4991766;28;20054;-88
2023/09/14 03:48:06;;;;;;;11.95;3.47;;;11.20;99.90;;;;;;4986519;28;20034;-88
2023/09/14 03:50:32;;;;;;;8.77;3.60;;;11.20;99.90;;;;;;4964302;28;20065;-88
2023/09/14 03:52:57;;;;;;;12.13;3.72;;;11.20;99.90;;;;;;4991797;28;20176;-88
2023/09/14 03:55:23;;;;;;;12.45;3.35;;;11.20;99.90;;;;;;4991749;28;20570;-88
2023/09/14 03:57:48;;;;;;;9.48;3.45;;;11.20;99.90;;;;;;4975961;28;20042;-87
2023/09/14 04:00:17;;;;;;;8.00;3.03;;;11.20;99.90;;;;;;4980325;28;20037;-87
2023/09/14 04:02:43;;;;;;;13.88;4.10;;;11.20;99.90;;;;;;4973428;28;20042;-88
2023/09/14 04:05:16;;;;;;;10.18;3.33;;;11.20;99.90;;;;;;4991308;28;20129;-87
2023/09/14 04:07:43;;;;;;;10.80;3.17;;;11.20;99.90;;;;;;4991402;28;20116;-87
2023/09/14 04:10:11;;;;;;;7.70;2.58;;;11.20;99.90;;;;;;4991963;28;20038;-88
2023/09/14 04:12:43;;;;;;;8.65;2.75;;;11.20;99.90;;;;;;4975417;28;20062;-88
2023/09/14 04:15:10;;;;;;;10.02;2.80;;;11.20;99.90;;;;;;4985668;28;20031;-88
2023/09/14 04:17:36;;;;;;;15.07;2.22;;;11.30;99.90;;;;;;4989872;28;20124;-88
2023/09/14 04:20:12;;;;;;;6.75;1.83;;;11.30;99.90;;;;;;4982987;28;20081;-88
2023/09/14 04:22:38;;;;;;;9.52;2.60;;;11.30;99.90;;;;;;4983029;28;20494;-88
2023/09/14 04:25:04;;;;;;;10.32;2.30;;;11.30;99.90;;;;;;4973974;28;20050;-88
2023/09/14 04:27:30;;;;;;;6.05;2.15;;;11.30;99.90;;;;;;4990576;28;20034;-88
2023/09/14 04:29:56;;;;;;;4.97;1.98;;;11.40;99.90;;;;;;4991212;28;20541;-88
2023/09/14 04:32:21;;;;;;;8.13;2.35;;;11.30;99.90;;;;;;4975622;28;20271;-89
2023/09/14 04:34:47;;;;;;;4.88;1.98;;;11.40;99.90;;;;;;4974836;28;20034;-90
2023/09/14 04:37:12;;;;;;;8.30;2.33;;;11.40;99.90;;;;;;4990065;28;20057;-89
2023/09/14 04:39:38;;;;;;;8.27;2.25;;;11.30;99.90;;;;;;4989522;28;20030;-89
2023/09/14 04:42:04;;;;;;;11.50;2.22;;;11.30;99.90;;;;;;4968315;28;20027;-89
2023/09/14 04:44:30;;;;;;;6.38;2.17;;;11.40;99.90;;;;;;4987931;28;20030;-89
2023/09/14 04:46:55;;;;;;;9.23;2.17;;;11.40;99.90;;;;;;4986926;28;20050;-88
2023/09/14 04:49:21;;;;;;;8.45;2.00;;;11.40;99.90;;;;;;4965910;28;20407;-88
2023/09/14 04:51:47;;;;;;;8.15;2.10;;;11.40;99.90;;;;;;4987472;28;20505;-89
2023/09/14 04:54:12;;;;;;;6.90;2.00;;;11.50;99.90;;;;;;4986645;28;20030;-88
2023/09/14 04:56:38;;;;;;;8.45;2.05;;;11.50;99.90;;;;;;4971129;28;20033;-88
2023/09/14 04:59:04;;;;;;;4.45;1.73;;;11.50;99.90;;;;;;4987174;28;20025;-88
2023/09/14 05:01:29;;;;;;;8.15;2.15;;;11.50;99.90;;;;;;4986872;28;20022;-89
2023/09/14 05:03:55;;;;;;;8.82;2.05;;;11.50;99.90;;;;;;4972525;28;20149;-88
2023/09/14 05:06:20;;;;;;;7.15;2.30;;;11.50;99.90;;;;;;4988547;28;20034;-89
2023/09/14 05:08:46;;;;;;;6.53;1.70;;;11.50;99.90;;;;;;4977989;28;20034;-88
2023/09/14 05:11:11;;;;;;;4.47;1.33;;;11.50;99.90;;;;;;4992842;28;20030;-89
2023/09/14 05:13:37;;;;;;;7.00;2.00;;;11.50;99.90;;;;;;4975655;28;20081;-88
2023/09/14 05:16:02;;;;;;;8.02;1.50;;;11.50;99.90;;;;;;4989933;28;20035;-88
2023/09/14 05:18:28;;;;;;;8.60;1.63;;;11.40;99.90;;;;;;4987553;28;20481;-89
2023/09/14 05:20:54;;;;;;;8.45;1.95;;;11.40;99.90;;;;;;4987928;28;20081;-88
2023/09/14 05:23:19;;;;;;;8.63;1.90;;;11.40;99.90;;;;;;4987749;28;20031;-87
2023/09/14 05:25:45;;;;;;;6.85;1.75;;;11.40;99.90;;;;;;4982952;28;20022;-88
2023/09/14 05:28:12;;;;;;;10.93;1.90;;;11.40;99.90;;;;;;4992474;28;20030;-88
2023/09/14 05:30:38;;;;;;;9.25;2.28;;;11.40;99.90;;;;;;4972050;28;20041;-88
2023/09/14 05:33:04;;;;;;;8.15;1.98;;;11.30;99.90;;;;;;4976699;28;20026;-88
2023/09/14 05:35:30;;;;;;;6.55;1.50;;;11.30;99.90;;;;;;4991597;28;20076;-88
2023/09/14 05:37:56;;;;;;;7.68;2.13;;;11.30;99.90;;;;;;4983691;28;20019;-88
2023/09/14 05:40:22;;;;;;;11.30;1.95;;;11.30;99.90;;;;;;4990466;28;20061;-88
2023/09/14 05:42:48;;;;;;;10.32;2.33;;;11.20;99.90;;;;;;4991880;28;20062;-88
2023/09/14 05:45:13;;;;;;;11.10;2.15;;;11.20;99.90;;;;;;4992035;28;20033;-88
2023/09/14 05:47:39;;;;;;;8.25;1.92;;;11.20;99.90;;;;;;4996310;28;20023;-88
2023/09/14 05:50:10;;;;;;;7.20;2.28;;;11.20;99.90;;;;;;4974523;28;20648;-88
2023/09/14 05:52:36;;;;;;;10.65;1.48;;;11.20;99.90;;;;;;4992785;28;20487;-89
2023/09/14 05:55:03;;;;;;;7.00;1.75;;;11.30;99.90;;;;;;4992659;28;20023;-88
2023/09/14 05:57:30;;;;;;;10.77;2.75;;;11.30;99.90;;;;;;4992122;28;20038;-86
2023/09/14 05:59:55;;;;;;;5.15;1.65;;;11.20;99.90;;;;;;4999844;28;20037;-88
2023/09/14 06:02:21;;;;;;;9.75;2.33;;;11.30;99.90;;;;;;4972415;28;20141;-87
2023/09/14 06:04:47;;;;;;;9.45;1.75;;;11.30;99.90;;;;;;4970221;28;20030;-88
2023/09/14 06:07:13;;;;;;;5.50;2.03;;;11.40;99.90;;;;;;4976542;28;20034;-87
2023/09/14 06:09:38;;;;;;;5.60;1.65;;;11.40;99.90;;;;;;4974407;28;20470;-89
2023/09/14 06:12:04;;;;;;;6.32;1.65;;;11.40;99.90;;;;;;4993109;28;20082;-87
2023/09/14 06:14:30;;;;;;;7.75;1.70;;;11.50;99.90;;;;;;4996037;28;20077;-87
2023/09/14 06:16:56;;;;;;;6.30;2.03;;;11.60;99.90;;;;;;4995416;28;20605;-88
2023/09/14 06:19:22;;;;;;;4.82;1.70;;;11.60;99.90;;;;;;4993605;28;20061;-88
2023/09/14 06:21:47;;;;;;;7.72;1.75;;;11.70;99.90;;;;;;4999468;28;20023;-88
2023/09/14 06:24:13;;;;;;;8.65;2.65;;;11.80;99.90;;;;;;4993316;28;20080;-89
2023/09/14 06:26:39;;;;;;;9.02;2.20;;;11.90;99.90;;;;;;4993480;28;20544;-87
2023/09/14 06:29:04;;;;;;;10.70;2.55;;;12.00;99.90;;;;;;4983749;28;20027;-87
2023/09/14 06:31:30;;;;;;;7.95;2.40;;;12.10;99.90;;;;;;4975605;28;20046;-87
2023/09/14 06:33:55;;;;;;;6.78;2.20;;;12.10;99.90;;;;;;4971097;28;20041;-87
2023/09/14 06:36:21;;;;;;;8.82;1.83;;;12.20;99.90;;;;;;4994583;28;20038;-87
2023/09/14 06:38:47;;;;;;;9.63;2.97;;;12.30;99.90;;;;;;4978311;28;20121;-87
2023/09/14 06:41:16;;;;;;;8.30;2.42;;;12.40;99.90;;;;;;4977930;28;20026;-89
2023/09/14 06:43:44;;;;;;;6.05;2.30;;;12.50;99.90;;;;;;4989304;28;20022;-88
2023/09/14 06:46:10;;;;;;;6.75;2.83;;;12.60;99.90;;;;;;4994981;28;20069;-88
2023/09/14 06:48:36;;;;;;;12.23;2.50;;;12.70;99.90;;;;;;4975501;28;20085;-88
2023/09/14 06:51:01;;;;;;;6.85;2.60;;;12.70;99.90;;;;;;4972502;28;20125;-87
2023/09/14 06:53:27;;;;;;;15.05;3.35;;;12.80;99.90;;;;;;4975085;28;20117;-87
2023/09/14 06:55:53;;;;;;;13.82;3.38;;;12.90;99.90;;;;;;4993911;28;20502;-88
2023/09/14 06:58:18;;;;;;;11.75;3.40;;;13.00;99.90;;;;;;4995160;28;20030;-87
2023/09/14 07:00:45;;;;;;;15.35;4.35;;;13.20;99.90;;;;;;4975987;28;20041;-89
2023/09/14 07:03:10;;;;;;;8.98;3.40;;;13.30;99.90;;;;;;4992197;28;20037;-89
2023/09/14 07:05:37;;;;;;;8.02;2.85;;;13.40;99.90;;;;;;4993931;28;20105;-89
2023/09/14 07:08:02;;;;;;;9.38;3.22;;;13.60;99.90;;;;;;4991195;28;20092;-88
2023/09/14 07:10:29;;;;;;;8.02;3.40;;;13.70;99.90;;;;;;4975803;28;20411;-88
2023/09/14 07:12:55;;;;;;;16.08;4.00;;;13.80;99.90;;;;;;4971368;28;20509;-89
2023/09/14 07:15:20;;;;;;;9.77;3.50;;;13.90;99.90;;;;;;4991164;28;20034;-87
2023/09/14 07:17:46;;;;;;;13.55;3.75;;;14.00;99.90;;;;;;4996173;28;20034;-88
2023/09/14 07:20:12;;;;;;;13.45;5.28;;;14.10;99.90;;;;;;5002063;28;20058;-88
2023/09/14 07:22:37;;;;;;;11.88;3.78;;;14.30;99.90;;;;;;4971176;28;20061;-88
2023/09/14 07:25:04;;;;;;;9.18;3.90;;;14.50;99.90;;;;;;4978887;28;20113;-88
2023/09/14 07:27:30;;;;;;;14.43;3.92;;;14.60;99.90;;;;;;4995417;28;20490;-88
2023/09/14 07:29:56;;;;;;;12.20;3.92;;;14.80;99.90;;;;;;4995807;28;20037;-87
2023/09/14 07:32:25;;;;;;;11.60;3.85;;;15.00;99.90;;;;;;4997921;28;20406;-88
2023/09/14 07:34:50;;;;;;;16.70;4.43;;;15.10;99.90;;;;;;4975478;28;20034;-88
2023/09/14 07:37:16;;;;;;;13.23;4.35;;;15.20;99.90;;;;;;4993214;28;20037;-88
2023/09/14 07:39:41;;;;;;;12.65;4.10;;;15.30;99.90;;;;;;4995102;28;20041;-88
2023/09/14 07:42:07;;;;;;;15.98;4.45;;;15.50;99.90;;;;;;4987541;28;20188;-88
2023/09/14 07:44:32;;;;;;;12.73;4.32;;;15.60;99.90;;;;;;4992960;28;20034;-87
2023/09/14 07:46:58;;;;;;;11.63;3.88;;;15.70;99.90;;;;;;4974484;28;20022;-88
2023/09/14 07:49:23;;;;;;;12.90;4.40;;;15.90;99.90;;;;;;4972397;28;20026;-89
2023/09/14 07:51:49;;;;;;;8.90;3.47;;;15.90;99.90;;;;;;4979000;28;20141;-88
2023/09/14 07:54:16;;;;;;;11.85;4.15;;;16.00;99.90;;;;;;4992581;28;20022;-87
2023/09/14 07:56:42;;;;;;;13.18;4.35;;;16.10;99.90;;;;;;4976210;28;20027;-89
2023/09/14 07:59:08;;;;;;;12.05;3.95;;;16.20;99.90;;;;;;4970468;28;20022;-87
2023/09/14 08:01:34;;;;;;;12.80;3.97;;;16.30;99.90;;;;;;4972688;28;20041;-86
2023/09/14 08:04:00;;;;;;;9.23;3.72;;;16.30;99.90;;;;;;4969875;28;20037;-85
2023/09/14 08:06:26;;;;;;;10.70;3.67;;;16.40;99.90;;;;;;4985207;28;20072;-86
2023/09/14 08:08:53;;;;;;;13.25;3.83;;;16.40;99.90;;;;;;4967949;28;20409;-87
2023/09/14 08:11:19;;;;;;;11.00;3.95;;;16.40;99.90;;;;;;4970374;28;20042;-86
2023/09/14 08:13:44;;;;;;;8.23;3.30;;;16.40;99.90;;;;;;4966538;28;20069;-86
2023/09/14 08:16:10;;;;;;;9.70;3.35;;;16.50;99.90;;;;;;4970513;28;20031;-86
2023/09/14 08:18:35;;;;;;;14.23;3.65;;;16.50;99.90;;;;;;4990904;28;20041;-87
2023/09/14 08:21:01;;;;;;;11.23;3.70;;;16.50;99.90;;;;;;4989184;28;20026;-87
2023/09/14 08:23:29;;;;;;;9.32;4.05;;;16.50;99.90;;;;;;4973561;28;20029;-87
2023/09/14 08:25:54;;;;;;;15.20;3.72;;;16.50;99.90;;;;;;4972886;28;20034;-88
2023/09/14 08:28:20;;;;;;;9.48;3.67;;;16.50;99.90;;;;;;4991383;28;20049;-87
2023/09/14 08:30:48;;;;;;;10.25;3.33;;;16.50;99.90;;;;;;4975843;28;20081;-88
2023/09/14 08:33:15;;;;;;;13.40;3.65;;;16.60;99.90;;;;;;4982309;28;20069;-87
2023/09/14 08:35:44;;;;;;;9.93;3.53;;;16.60;99.90;;;;;;4991117;28;20405;-87
2023/09/14 08:38:10;;;;;;;8.10;3.25;;;16.80;99.90;;;;;;4989199;28;20034;-88
2023/09/14 08:40:36;;;;;;;9.77;4.03;;;16.90;99.90;;;;;;4993650;28;20034;-88
2023/09/14 08:43:02;;;;;;;9.02;3.40;;;16.90;99.90;;;;;;4976458;28;20031;-88
2023/09/14 08:45:32;;;;;;;8.95;2.88;;;17.00;99.90;;;;;;4964814;28;20026;-88
2023/09/14 08:47:59;;;;;;;11.40;3.38;;;17.10;99.90;;;;;;4992172;28;20025;-89
2023/09/14 08:50:26;;;;;;;10.57;3.85;;;17.20;99.90;;;;;;4990810;28;20096;-88
2023/09/14 08:52:53;;;;;;;16.85;4.57;;;17.30;99.90;;;;;;4971627;28;20027;-88
2023/09/14 08:55:21;;;;;;;15.98;4.65;;;17.40;99.90;;;;;;4990555;28;20034;-89
2023/09/14 08:57:47;;;;;;;11.00;3.13;;;17.50;99.90;;;;;;4975321;28;20022;-87
2023/09/14 09:00:17;;;;;;;6.32;3.17;;;17.60;99.90;;;;;;4992182;28;20505;-87
2023/09/14 09:02:49;;;;;;;7.53;3.20;;;17.70;99.90;;;;;;4968726;28;20038;-88
2023/09/14 09:05:16;;;;;;;11.85;3.53;;;17.80;99.90;;;;;;4975109;28;20494;-88
2023/09/14 09:07:43;;;;;;;15.82;5.70;;;17.90;99.90;;;;;;4992203;28;20053;-88
2023/09/14 09:10:21;;;;;;;7.82;3.75;;;18.00;99.90;;;;;;4991690;28;20061;-87
2023/09/14 09:12:50;;;;;;;14.90;4.53;;;18.10;99.90;;;;;;4975797;28;20565;-88
2023/09/14 09:15:16;;;;;;;10.60;4.45;;;18.20;99.90;;;;;;4975609;28;20121;-87
2023/09/14 09:17:42;;;;;;;13.25;5.80;;;18.20;99.90;;;;;;4972131;28;20069;-86
2023/09/14 09:20:27;;;;;;;9.85;4.88;;;18.30;99.90;;;;;;4984791;28;20034;-86
2023/09/14 09:22:59;;;;;;;12.35;4.93;;;18.40;99.90;;;;;;4989488;28;20030;-86
2023/09/14 09:25:25;;;;;;;10.65;5.32;;;18.40;99.90;;;;;;4989863;28;20061;-89
2023/09/14 09:28:04;;;;;;;13.30;6.07;;;18.50;99.90;;;;;;4987603;28;20031;-88
2023/09/14 09:30:35;;;;;;;15.85;7.85;;;18.70;99.90;;;;;;4979315;28;20045;-88
2023/09/14 09:33:01;;;;;;;16.33;7.30;;;18.80;99.90;;;;;;4975720;28;20030;-89
2023/09/14 09:35:31;;;;;;;13.70;6.80;;;18.80;99.90;;;;;;4989734;28;20030;-88
2023/09/14 09:38:10;;;;;;;13.75;6.55;;;18.90;99.90;;;;;;4991939;28;20518;-88
2023/09/14 09:40:44;;;;;;;17.63;8.93;;;19.00;99.90;;;;;;4990422;28;20030;-85
2023/09/14 09:43:18;;;;;;;14.55;7.70;;;19.10;99.90;;;;;;4971373;28;20031;-88
2023/09/14 09:45:44;;;;;;;15.60;5.95;;;19.10;99.90;;;;;;4989802;28;20096;-88
2023/09/14 09:48:10;;;;;;;16.50;6.35;;;19.00;99.90;;;;;;4977761;28;20079;-88
2023/09/14 09:50:36;;;;;;;13.52;5.43;;;19.10;99.90;;;;;;4991674;28;20027;-88
2023/09/14 09:53:02;;;;;;;11.95;5.60;;;19.20;99.90;;;;;;4978803;28;20029;-88
2023/09/14 09:55:29;;;;;;;13.68;5.78;;;19.30;99.90;;;;;;4995766;28;20053;-88
2023/09/14 09:57:58;;;;;;;15.57;6.68;;;19.40;99.90;;;;;;4978303;28;20486;-88
2023/09/14 10:00:31;;;;;;;10.95;5.88;;;19.40;99.90;;;;;;4995358;28;20399;-88
2023/09/14 10:02:57;;;;;;;13.15;7.05;;;19.60;99.90;;;;;;4977459;28;20044;-88
2023/09/14 10:05:31;;;;;;;9.00;5.25;;;19.50;99.90;;;;;;4977868;28;20464;-88
2023/09/14 10:07:58;;;;;;;11.23;5.18;;;19.60;99.90;;;;;;4993992;28;20045;-88
2023/09/14 10:10:30;;;;;;;8.38;5.03;;;19.70;99.90;;;;;;4994912;28;20125;-88
2023/09/14 10:12:56;;;;;;;;;;;19.80;99.90;;;;;;4994431;28;20134;-89
2023/09/14 10:15:26;;;;;;;10.23;5.53;;;19.80;99.90;;;;;;4979201;28;20004;-88
2023/09/14 10:17:54;;;;;;;11.70;5.90;;;19.80;99.90;;;;;;4994276;28;20065;-88
2023/09/14 10:20:20;;;;;;;10.68;4.88;;;19.70;99.90;;;;;;4994895;28;20533;-88
2023/09/14 10:22:48;;;;;;;11.38;5.50;;;19.70;99.90;;;;;;4978248;28;20026;-88
2023/09/14 10:25:14;;;;;;;10.05;5.22;;;19.90;99.90;;;;;;4993654;28;20030;-89
2023/09/14 10:27:40;;;;;;;13.00;6.50;;;20.20;99.90;;;;;;4978899;28;20026;-88
2023/09/14 10:30:13;;;;;;;13.60;6.57;;;20.40;99.90;;;;;;4978827;28;20042;-87
2023/09/14 10:32:39;;;;;;;7.70;4.25;;;20.60;99.90;;;;;;4977514;28;20022;-88
2023/09/14 10:35:09;;;;;;;8.93;4.35;;;20.70;99.90;;;;;;4993191;28;20030;-90
2023/09/14 10:37:37;;;;;;;11.65;5.00;;;20.80;99.90;;;;;;4977842;28;20033;-92
2023/09/14 10:40:04;;;;;;;7.68;3.25;;;20.90;99.90;;;;;;4978474;28;20042;-90
2023/09/14 10:42:30;;;;;;;6.57;2.85;;;20.90;99.90;;;;;;4997076;28;20029;-91
2023/09/14 10:44:56;;;;;;;7.68;3.30;;;21.00;99.90;;;;;;4995349;28;20030;-91
2023/09/14 10:47:25;;;;;;;8.57;3.50;;;21.10;99.90;;;;;;4995918;28;20483;-91
2023/09/14 10:49:52;;;;;;;8.80;3.53;;;21.00;99.90;;;;;;4980913;28;20035;-91
2023/09/14 10:52:25;;;;;;;10.02;4.68;;;21.00;99.90;;;;;;4996344;28;20041;-91
2023/09/14 10:54:51;;;;;;;10.18;4.38;;;21.20;99.90;;;;;;4987827;28;20054;-92
2023/09/14 10:57:23;;;;;;;6.72;3.17;;;21.30;99.90;;;;;;4975284;28;20023;-91
2023/09/14 10:59:58;;;;;;;6.45;3.72;;;21.50;99.90;;;;;;4962227;28;20495;-90
2023/09/14 11:02:39;;;;;;;7.78;2.60;;;21.60;99.90;;;;;;4966634;28;20078;-90
2023/09/14 11:05:24;;;;;;;7.82;2.97;;;21.80;99.90;;;;;;4996525;28;20026;-90
2023/09/14 11:07:59;;;;;;;7.13;2.70;;;22.00;99.90;;;;;;4996749;28;20027;-89
2023/09/14 11:10:27;;;;;;;5.03;2.63;;;22.30;99.90;;;;;;4982455;28;20498;-89
2023/09/14 11:13:18;;;;;;;8.05;2.78;;;22.50;99.90;;;;;;4995983;28;20101;-89
2023/09/14 11:15:46;;;;;;;7.07;3.87;;;22.50;99.90;;;;;;4995586;28;20071;-88
2023/09/14 11:18:17;;;;;;;5.72;3.28;;;22.50;99.90;;;;;;4972967;28;20030;-88
2023/09/14 11:20:44;;;;;;;6.53;3.00;;;22.50;99.90;;;;;;4993835;28;20478;-88
2023/09/14 11:23:10;;;;;;;5.68;2.83;;;22.40;99.90;;;;;;4978768;28;20065;-88
2023/09/14 11:25:41;;;;;;;6.45;3.45;;;22.30;99.90;;;;;;4981870;28;20037;-88
2023/09/14 11:28:22;;;;;;;7.85;3.20;;;22.40;99.90;;;;;;4995080;28;20391;-88
2023/09/14 11:30:48;;;;;;;5.10;2.75;;;22.40;99.90;;;;;;4979060;28;20065;-89
2023/09/14 11:33:15;;;;;;;6.55;2.60;;;22.50;99.90;;;;;;4994973;28;20075;-87
2023/09/14 11:35:46;;;;;;;8.68;2.53;;;22.50;99.90;;;;;;4989598;28;20034;-87
2023/09/14 11:38:23;;;;;;;7.95;2.63;;;22.40;99.50;;;;;;4975122;28;20537;-87
2023/09/14 11:40:49;;;;;;;6.50;3.10;;;22.10;99.10;;;;;;4992986;28;20117;-87
2023/09/14 11:43:24;;;;;;;5.97;2.92;;;21.80;99.80;;;;;;4994653;28;20057;-87
2023/09/14 11:45:56;;;;;;;7.10;2.47;;;21.80;99.90;;;;;;4994653;28;20073;-87
2023/09/14 11:48:23;;;;;;;4.68;2.28;;;21.70;99.90;;;;;;4994728;28;20117;-87
2023/09/14 11:50:50;;;;;;;10.55;2.55;;;21.80;99.90;;;;;;4981904;28;20049;-88
2023/09/14 11:53:18;;;;;;;4.25;2.47;;;21.60;99.90;;;;;;4974782;28;20029;-88
2023/09/14 11:55:51;;;;;;;7.90;3.28;;;21.70;99.90;;;;;;4977231;28;20057;-88
2023/09/14 11:58:17;;;;;;;7.45;2.88;;;21.80;99.90;;;;;;4991787;28;20105;-88
2023/09/14 12:00:49;;;;;;;7.70;3.13;;;21.80;99.60;;;;;;4962274;28;20023;-88
2023/09/14 12:03:14;;;;;;;;;;;21.90;99.30;;;;;;4993479;28;20062;-88
2023/09/14 12:05:40;;;;;;;6.32;2.63;;;21.90;99.70;;;;;;4992329;28;19921;-88
2023/09/14 12:08:16;;;;;;;7.88;2.80;;;22.10;99.70;;;;;;4992969;28;20042;-88
2023/09/14 12:10:44;;;;;;;5.15;2.63;;;22.40;99.30;;;;;;4992739;28;20034;-88
2023/09/14 12:13:15;;;;;;;5.95;2.83;;;22.60;97.80;;;;;;4992707;28;20057;-87
2023/09/14 12:15:45;;;;;;;5.13;2.45;;;22.60;96.80;;;;;;4988995;28;20023;-88
2023/09/14 12:18:12;;;;;;;7.13;2.72;;;22.80;96.90;;;;;;4993961;28;20110;-87
2023/09/14 12:20:42;;;;;;;4.93;2.80;;;22.80;96.50;;;;;;4993049;28;20038;-88
2023/09/14 12:23:09;;;;;;;5.85;3.03;;;22.90;96.40;;;;;;4976418;28;20133;-87
2023/09/14 12:25:41;;;;;;;6.90;2.97;;;22.90;95.50;;;;;;4992728;28;20026;-88
2023/09/14 12:28:09;;;;;;;5.78;3.10;;;22.80;95.70;;;;;;4992765;28;20038;-88
2023/09/14 12:30:35;;;;;;;9.13;3.08;;;22.60;96.40;;;;;;4976767;28;20104;-87
2023/09/14 12:33:03;;;;;;;6.45;2.63;;;22.60;96.10;;;;;;4966251;28;20027;-88
2023/09/14 12:35:29;;;;;;;7.65;3.08;;;22.40;95.60;;;;;;4967392;28;20053;-86
2023/09/14 12:38:02;;;;;;;5.53;2.50;;;22.30;95.40;;;;;;4992396;28;20030;-87
2023/09/14 12:40:31;;;;;;;6.32;3.08;;;22.30;95.90;;;;;;4991478;28;20027;-89
2023/09/14 12:43:00;;;;;;;4.85;2.85;;;22.30;95.80;;;;;;4996751;28;20026;-89